createdAt,value
2019-04-21T00:00:56.829Z,58.89
2019-04-21T00:03:27.564Z,58.90
2019-04-21T00:06:09.482Z,58.83
2019-04-21T00:08:56.526Z,59.25
2019-04-21T00:11:09.747Z,60.14
2019-04-21T00:13:33.184Z,60.32
2019-04-21T00:15:53.993Z,60.48
2019-04-21T00:18:38.412Z,60.33
2019-04-21T00:21:09.843Z,60.21
2019-04-21T00:23:42.486Z,59.91
2019-04-21T00:26:09.048Z,58.99
2019-04-21T00:28:58.130Z,59.20
2019-04-21T00:31:11.702Z,59.94
2019-04-21T00:33:30.018Z,59.90
2019-04-21T00:36:02.102Z,60.44
2019-04-21T00:38:51.856Z,60.49
2019-04-21T00:41:13.433Z,60.78
2019-04-21T00:43:37.489Z,60.75
2019-04-21T00:46:03.244Z,61.20
2019-04-21T00:48:42.457Z,60.44
2019-04-21T00:51:27.547Z,61.42
2019-04-21T00:53:51.180Z,61.39
2019-04-21T00:56:34.034Z,61.03
2019-04-21T00:58:49.862Z,60.47
2019-04-21T01:01:15.220Z,61.26
2019-04-21T01:03:46.224Z,61.48
2019-04-21T01:06:20.146Z,61.23
2019-04-21T01:08:41.374Z,61.79
2019-04-21T01:11:16.518Z,61.87
2019-04-21T01:13:45.568Z,62.64
2019-04-21T01:16:14.296Z,62.75
2019-04-21T01:18:41.012Z,63.29
2019-04-21T01:20:49.647Z,63.54
2019-04-21T01:23:17.320Z,63.29
2019-04-21T01:26:00.675Z,63.35
2019-04-21T01:28:29.055Z,63.68
2019-04-21T01:31:07.486Z,63.98
2019-04-21T01:33:39.845Z,63.97
2019-04-21T01:35:58.379Z,63.69
2019-04-21T01:38:35.703Z,63.53
2019-04-21T01:41:08.610Z,63.58
2019-04-21T01:43:27.588Z,63.51
2019-04-21T01:45:59.457Z,63.88
2019-04-21T01:48:26.724Z,63.83
2019-04-21T01:50:58.156Z,63.78
2019-04-21T01:53:36.804Z,63.82
2019-04-21T01:56:16.891Z,63.91
2019-04-21T01:58:42.805Z,64.63
2019-04-21T02:01:24.623Z,64.91
2019-04-21T02:06:21.262Z,66.08
2019-04-21T02:08:50.982Z,67.10
2019-04-21T02:11:26.414Z,68.79
2019-04-21T02:14:00.413Z,68.76
2019-04-21T02:16:18.198Z,68.86
2019-04-21T02:18:53.058Z,67.88
2019-04-21T02:21:09.476Z,67.89
2019-04-21T02:23:54.337Z,67.56
2019-04-21T02:26:19.111Z,66.88
2019-04-21T02:31:28.687Z,66.83
2019-04-21T02:39:10.471Z,67.61
2019-04-21T02:41:21.487Z,67.17
2019-04-21T02:44:02.526Z,66.87
2019-04-21T02:46:38.192Z,67.25
2019-04-21T02:48:56.421Z,67.23
2019-04-21T02:51:27.640Z,66.86
2019-04-21T02:54:28.768Z,66.99
2019-04-21T02:56:28.394Z,67.16
2019-04-21T03:04:18.449Z,66.77
2019-04-21T03:06:54.155Z,66.56
2019-04-21T03:09:20.536Z,67.55
2019-04-21T03:11:53.457Z,67.14
2019-04-21T03:14:33.186Z,67.55
2019-04-21T03:19:20.017Z,67.49
2019-04-21T03:21:50.644Z,68.07
2019-04-21T03:24:40.264Z,67.86
2019-04-21T03:26:52.313Z,67.78
2019-04-21T03:36:56.562Z,68.96
2019-04-21T03:39:09.520Z,68.88
2019-04-21T03:41:48.847Z,69.15
2019-04-21T03:44:14.519Z,68.96
2019-04-21T03:46:41.376Z,69.66
2019-04-21T03:49:12.480Z,69.25
2019-04-21T03:51:43.930Z,69.15
2019-04-21T03:59:09.971Z,70.46
2019-04-21T04:04:31.913Z,69.17
2019-04-21T04:07:04.435Z,69.31
2019-04-21T04:09:41.836Z,70.47
2019-04-21T04:14:32.687Z,71.98
2019-04-21T04:19:26.475Z,71.11
2019-04-21T04:22:06.023Z,70.50
2019-04-21T04:25:01.176Z,70.54
2019-04-21T04:29:26.304Z,71.10
2019-04-21T04:34:35.946Z,72.80
2019-04-21T04:37:17.393Z,71.78
2019-04-21T04:44:59.704Z,71.59
2019-04-21T04:47:07.341Z,72.21
2019-04-21T04:54:43.559Z,69.53
2019-04-21T04:57:13.851Z,68.95
2019-04-21T04:59:35.443Z,68.00
2019-04-21T05:02:00.236Z,67.66
2019-04-21T05:04:29.514Z,66.30
2019-04-21T05:09:21.470Z,64.23
2019-04-21T05:11:50.837Z,64.10
2019-04-21T05:17:02.344Z,63.72
2019-04-21T05:19:34.975Z,63.38
2019-04-21T05:22:06.815Z,63.13
2019-04-21T05:24:10.869Z,62.96
2019-04-21T05:26:40.214Z,62.75
2019-04-21T05:29:01.878Z,61.80
2019-04-21T05:31:50.679Z,61.98
2019-04-21T05:34:18.498Z,62.10
2019-04-21T05:36:52.048Z,61.67
2019-04-21T05:39:37.765Z,61.09
2019-04-21T05:42:00.794Z,61.42
2019-04-21T05:44:49.274Z,61.31
2019-04-21T05:47:20.595Z,60.63
2019-04-21T05:49:45.169Z,60.11
2019-04-21T05:52:09.461Z,59.20
2019-04-21T05:54:52.750Z,58.89
2019-04-21T05:57:14.365Z,58.27
2019-04-21T05:59:43.723Z,57.64
2019-04-21T06:02:23.937Z,56.79
2019-04-21T06:07:25.686Z,55.49
2019-04-21T06:09:51.352Z,55.68
2019-04-21T06:12:14.614Z,54.77
2019-04-21T06:14:52.075Z,54.08
2019-04-21T06:17:19.238Z,54.09
2019-04-21T06:22:07.633Z,53.40
2019-04-21T06:24:58.390Z,52.97
2019-04-21T06:27:26.313Z,51.78
2019-04-21T06:29:46.553Z,51.80
2019-04-21T06:34:59.124Z,49.06
2019-04-21T06:37:34.755Z,48.01
2019-04-21T06:40:03.179Z,46.04
2019-04-21T06:42:09.065Z,44.89
2019-04-21T06:44:50.031Z,45.98
2019-04-21T06:47:16.213Z,44.14
2019-04-21T06:49:40.475Z,44.05
2019-04-21T06:52:17.878Z,43.57
2019-04-21T06:54:45.596Z,43.09
2019-04-21T06:57:15.164Z,42.67
2019-04-21T06:59:31.997Z,41.62
2019-04-21T07:02:28.591Z,42.18
2019-04-21T07:04:46.941Z,43.02
2019-04-21T07:07:05.177Z,42.65
2019-04-21T07:09:41.286Z,42.54
2019-04-21T07:11:59.692Z,41.36
2019-04-21T07:14:49.921Z,43.50
2019-04-21T07:17:05.274Z,42.85
2019-04-21T07:19:35.241Z,40.88
2019-04-21T07:22:03.333Z,40.82
2019-04-21T07:24:31.272Z,41.65
2019-04-21T07:27:04.210Z,42.37
2019-04-21T07:29:34.486Z,42.49
2019-04-21T07:34:33.368Z,41.68
2019-04-21T07:37:12.688Z,42.55
2019-04-21T07:39:27.057Z,41.37
2019-04-21T07:41:54.084Z,40.95
2019-04-21T07:44:24.288Z,41.60
2019-04-21T07:46:46.324Z,41.62
2019-04-21T07:49:32.690Z,40.56
2019-04-21T07:52:22.282Z,40.14
2019-04-21T07:54:57.004Z,41.07
2019-04-21T07:57:11.296Z,41.06
2019-04-21T07:59:55.109Z,40.13
2019-04-21T08:02:20.186Z,38.86
2019-04-21T08:07:21.811Z,37.90
2019-04-21T08:09:41.224Z,36.97
2019-04-21T08:12:08.199Z,37.84
2019-04-21T08:14:43.965Z,36.92
2019-04-21T08:17:09.541Z,35.60
2019-04-21T08:19:35.876Z,36.99
2019-04-21T08:22:12.595Z,37.43
2019-04-21T08:24:43.843Z,36.16
2019-04-21T08:27:12.061Z,35.99
2019-04-21T08:29:44.677Z,35.31
2019-04-21T08:32:08.160Z,34.08
2019-04-21T08:34:49.349Z,33.74
2019-04-21T08:37:08.629Z,35.09
2019-04-21T08:39:43.602Z,33.19
2019-04-21T08:42:03.342Z,33.26
2019-04-21T08:47:06.049Z,31.91
2019-04-21T08:49:39.270Z,32.01
2019-04-21T08:52:28.420Z,32.50
2019-04-21T08:54:32.325Z,32.01
2019-04-21T08:57:12.999Z,31.69
2019-04-21T08:59:45.966Z,31.97
2019-04-21T09:02:26.054Z,31.05
2019-04-21T09:04:49.104Z,30.23
2019-04-21T09:07:21.317Z,30.15
2019-04-21T09:09:48.383Z,30.51
2019-04-21T09:12:17.780Z,30.59
2019-04-21T09:14:41.849Z,28.09
2019-04-21T09:17:07.168Z,28.38
2019-04-21T09:19:51.468Z,28.18
2019-04-21T09:22:12.222Z,28.16
2019-04-21T09:24:42.824Z,26.88
2019-04-21T09:27:10.173Z,26.98
2019-04-21T09:29:31.022Z,27.07
2019-04-21T09:31:54.484Z,26.47
2019-04-21T09:34:25.612Z,27.14
2019-04-21T09:36:54.447Z,26.78
2019-04-21T09:39:22.626Z,26.43
2019-04-21T09:41:53.473Z,25.99
2019-04-21T09:44:25.446Z,25.20
2019-04-21T09:46:50.602Z,25.88
2019-04-21T09:49:22.491Z,27.30
2019-04-21T09:51:46.364Z,26.50
2019-04-21T09:54:22.354Z,25.98
2019-04-21T09:56:51.057Z,25.34
2019-04-21T09:59:20.786Z,26.95
2019-04-21T10:01:57.500Z,24.34
2019-04-21T10:04:11.994Z,24.85
2019-04-21T10:06:39.804Z,24.63
2019-04-21T10:09:10.225Z,23.99
2019-04-21T10:11:37.621Z,23.18
2019-04-21T10:14:05.573Z,24.17
2019-04-21T10:16:38.610Z,25.45
2019-04-21T10:19:06.931Z,24.30
2019-04-21T10:21:35.974Z,24.29
2019-04-21T10:24:04.156Z,24.21
2019-04-21T10:26:33.249Z,24.02
2019-04-21T10:29:08.274Z,24.91
2019-04-21T10:31:30.424Z,24.26
2019-04-21T10:33:58.922Z,23.68
2019-04-21T10:36:26.905Z,23.92
2019-04-21T10:38:55.736Z,25.18
2019-04-21T10:41:23.994Z,25.19
2019-04-21T10:43:51.652Z,24.64
2019-04-21T10:46:19.311Z,24.74
2019-04-21T10:48:46.985Z,25.27
2019-04-21T10:51:14.936Z,24.07
2019-04-21T10:53:45.032Z,24.42
2019-04-21T10:56:21.861Z,25.41
2019-04-21T10:58:44.556Z,24.47
2019-04-21T11:01:18.835Z,24.14
2019-04-21T11:03:53.103Z,24.43
2019-04-21T11:06:21.119Z,25.68
2019-04-21T11:08:52.182Z,24.34
2019-04-21T11:11:19.623Z,24.62
2019-04-21T11:13:48.455Z,24.71
2019-04-21T11:16:17.248Z,24.61
2019-04-21T11:18:46.095Z,24.51
2019-04-21T11:21:13.855Z,24.55
2019-04-21T11:23:41.501Z,25.16
2019-04-21T11:26:09.981Z,25.17
2019-04-21T11:28:38.923Z,24.79
2019-04-21T11:31:07.049Z,25.18
2019-04-21T11:33:35.606Z,25.81
2019-04-21T11:36:03.611Z,25.88
2019-04-21T11:38:59.780Z,24.47
2019-04-21T11:41:12.177Z,25.30
2019-04-21T11:43:41.258Z,24.79
2019-04-21T11:46:10.658Z,25.23
2019-04-21T11:48:39.873Z,24.81
2019-04-21T11:51:08.915Z,25.28
2019-04-21T11:53:36.990Z,25.13
2019-04-21T11:56:04.900Z,25.68
2019-04-21T11:58:33.747Z,26.20
2019-04-21T12:01:03.340Z,25.76
2019-04-21T12:03:31.701Z,26.09
2019-04-21T12:05:59.617Z,25.27
2019-04-21T12:08:35.034Z,24.75
2019-04-21T12:10:57.742Z,26.84
2019-04-21T12:13:25.603Z,25.71
2019-04-21T12:15:53.275Z,25.76
2019-04-21T12:18:22.238Z,25.76
2019-04-21T12:20:51.609Z,26.09
2019-04-21T12:23:20.452Z,25.65
2019-04-21T12:25:49.517Z,25.54
2019-04-21T12:28:17.473Z,25.82
2019-04-21T12:30:47.373Z,25.50
2019-04-21T12:33:22.234Z,24.96
2019-04-21T12:35:51.476Z,24.91
2019-04-21T12:38:30.177Z,24.59
2019-04-21T12:40:48.707Z,24.45
2019-04-21T12:43:16.771Z,25.08
2019-04-21T12:45:44.605Z,25.01
2019-04-21T12:48:13.733Z,24.74
2019-04-21T12:50:41.744Z,26.35
2019-04-21T12:53:12.598Z,25.82
2019-04-21T12:55:42.788Z,25.09
2019-04-21T12:58:08.372Z,25.36
2019-04-21T13:00:36.778Z,24.67
2019-04-21T13:03:05.723Z,25.84
2019-04-21T13:05:33.773Z,25.84
2019-04-21T13:08:01.703Z,25.68
2019-04-21T13:10:30.546Z,25.12
2019-04-21T13:12:59.676Z,25.71
2019-04-21T13:15:27.504Z,26.04
2019-04-21T13:17:56.349Z,26.03
2019-04-21T13:20:25.307Z,25.96
2019-04-21T13:22:54.335Z,24.84
2019-04-21T13:25:23.518Z,25.30
2019-04-21T13:27:52.356Z,25.82
2019-04-21T13:30:20.226Z,25.60
2019-04-21T13:32:49.263Z,24.92
2019-04-21T13:35:17.154Z,25.85
2019-04-21T13:37:45.815Z,25.01
2019-04-21T13:40:34.151Z,25.47
2019-04-21T13:42:54.991Z,25.63
2019-04-21T13:45:18.414Z,25.33
2019-04-21T13:47:46.332Z,25.90
2019-04-21T13:50:15.281Z,26.67
2019-04-21T13:52:43.054Z,25.47
2019-04-21T13:55:11.847Z,26.54
2019-04-21T13:57:40.929Z,26.59
2019-04-21T14:00:09.034Z,26.70
2019-04-21T14:02:38.556Z,26.35
2019-04-21T14:05:08.527Z,25.92
2019-04-21T14:07:36.455Z,25.00
2019-04-21T14:10:07.142Z,26.22
2019-04-21T14:12:33.634Z,26.44
2019-04-21T14:15:02.302Z,26.58
2019-04-21T14:17:30.951Z,25.42
2019-04-21T14:19:59.444Z,25.27
2019-04-21T14:22:28.305Z,25.29
2019-04-21T14:24:56.329Z,26.33
2019-04-21T14:27:24.089Z,27.29
2019-04-21T14:29:51.731Z,26.19
2019-04-21T14:32:20.237Z,26.20
2019-04-21T14:34:50.222Z,26.94
2019-04-21T14:37:17.400Z,26.37
2019-04-21T14:39:52.743Z,26.01
2019-04-21T14:42:14.417Z,25.79
2019-04-21T14:44:42.934Z,26.69
2019-04-21T14:47:29.804Z,26.46
2019-04-21T14:50:22.280Z,26.46
2019-04-21T14:53:09.997Z,26.36
2019-04-21T14:55:39.510Z,26.58
2019-04-21T14:58:07.387Z,26.08
2019-04-21T15:00:35.199Z,25.72
2019-04-21T15:03:03.707Z,26.00
2019-04-21T15:05:31.401Z,26.09
2019-04-21T15:07:59.375Z,25.72
2019-04-21T15:10:30.576Z,25.81
2019-04-21T15:12:56.583Z,26.51
2019-04-21T15:15:25.565Z,27.00
2019-04-21T15:17:53.577Z,25.67
2019-04-21T15:20:22.031Z,26.20
2019-04-21T15:22:50.671Z,26.18
2019-04-21T15:25:18.438Z,26.06
2019-04-21T15:27:46.607Z,26.31
2019-04-21T15:30:14.465Z,25.75
2019-04-21T15:32:42.728Z,25.67
2019-04-21T15:35:11.047Z,26.14
2019-04-21T15:37:39.877Z,25.95
2019-04-21T15:40:18.209Z,25.61
2019-04-21T15:42:37.142Z,26.13
2019-04-21T15:45:06.289Z,25.32
2019-04-21T15:47:34.266Z,26.30
2019-04-21T15:50:07.386Z,25.68
2019-04-21T15:52:31.877Z,25.84
2019-04-21T15:55:06.192Z,26.42
2019-04-21T15:57:43.096Z,26.41
2019-04-21T16:00:34.808Z,26.03
2019-04-21T16:03:02.492Z,25.79
2019-04-21T16:05:30.829Z,25.51
2019-04-21T16:07:58.553Z,25.60
2019-04-21T16:10:34.337Z,26.44
2019-04-21T16:12:56.043Z,26.00
2019-04-21T16:15:23.915Z,26.13
2019-04-21T16:17:53.094Z,26.48
2019-04-21T16:20:21.850Z,25.94
2019-04-21T16:22:50.620Z,26.58
2019-04-21T16:25:18.838Z,26.62
2019-04-21T16:27:47.659Z,26.37
2019-04-21T16:30:15.686Z,25.81
2019-04-21T16:32:43.993Z,25.95
2019-04-21T16:35:14.311Z,26.13
2019-04-21T16:37:41.626Z,26.60
2019-04-21T16:40:09.574Z,26.29
2019-04-21T16:42:38.456Z,26.57
2019-04-21T16:45:07.292Z,26.32
2019-04-21T16:47:35.866Z,26.92
2019-04-21T16:50:03.610Z,26.47
2019-04-21T16:52:40.301Z,26.36
2019-04-21T16:55:16.889Z,26.75
2019-04-21T16:57:59.482Z,26.62
2019-04-21T17:00:31.236Z,26.59
2019-04-21T17:02:52.472Z,26.64
2019-04-21T17:05:20.393Z,26.75
2019-04-21T17:07:49.224Z,26.67
2019-04-21T17:10:17.076Z,26.51
2019-04-21T17:12:45.553Z,26.26
2019-04-21T17:15:29.379Z,26.13
2019-04-21T17:18:04.194Z,27.04
2019-04-21T17:20:25.075Z,27.14
2019-04-21T17:22:41.785Z,26.54
2019-04-21T17:25:10.537Z,26.83
2019-04-21T17:27:39.002Z,26.81
2019-04-21T17:30:06.842Z,26.52
2019-04-21T17:32:38.753Z,27.04
2019-04-21T17:35:04.066Z,27.03
2019-04-21T17:37:32.457Z,26.94
2019-04-21T17:40:03.430Z,26.93
2019-04-21T17:42:36.416Z,26.93
2019-04-21T17:44:59.409Z,27.47
2019-04-21T17:47:39.420Z,28.06
2019-04-21T17:50:04.276Z,28.38
2019-04-21T17:52:43.778Z,28.71
2019-04-21T17:55:19.792Z,29.06
2019-04-21T17:57:59.418Z,29.74
2019-04-21T18:00:53.532Z,29.15
2019-04-21T18:02:58.989Z,30.63
2019-04-21T18:05:32.023Z,30.13
2019-04-21T18:07:54.573Z,30.38
2019-04-21T18:10:29.365Z,31.37
2019-04-21T18:12:49.153Z,32.20
2019-04-21T18:15:22.035Z,33.83
2019-04-21T18:17:36.652Z,33.80
2019-04-21T18:20:05.981Z,35.33
2019-04-21T18:22:47.469Z,35.18
2019-04-21T18:25:28.022Z,36.27
2019-04-21T18:27:44.902Z,36.05
2019-04-21T18:30:12.859Z,36.86
2019-04-21T18:32:42.472Z,38.87
2019-04-21T18:35:20.565Z,37.58
2019-04-21T18:38:04.536Z,38.37
2019-04-21T18:40:29.718Z,38.43
2019-04-21T18:43:38.710Z,39.90
2019-04-21T18:46:03.573Z,40.49
2019-04-21T18:48:32.786Z,40.63
2019-04-21T18:51:06.255Z,40.80
2019-04-21T18:53:50.317Z,41.10
2019-04-21T18:56:06.536Z,41.27
2019-04-21T18:58:32.905Z,41.66
2019-04-21T19:01:08.801Z,41.77
2019-04-21T19:03:36.735Z,43.13
2019-04-21T19:06:08.144Z,44.18
2019-04-21T19:08:46.594Z,43.43
2019-04-21T19:11:18.993Z,43.78
2019-04-21T19:13:59.929Z,44.00
2019-04-21T19:19:01.607Z,45.16
2019-04-21T19:21:17.439Z,45.75
2019-04-21T19:23:52.148Z,46.42
2019-04-21T19:26:40.884Z,46.69
2019-04-21T19:28:58.800Z,46.93
2019-04-21T19:31:17.280Z,46.54
2019-04-21T19:33:36.432Z,46.86
2019-04-21T19:35:57.522Z,46.86
2019-04-21T19:38:35.027Z,46.89
2019-04-21T19:41:12.780Z,46.88
2019-04-21T19:43:46.019Z,48.47
2019-04-21T19:46:09.658Z,48.47
2019-04-21T19:48:44.461Z,48.67
2019-04-21T19:51:10.575Z,48.73
2019-04-21T19:53:37.129Z,49.65
2019-04-21T19:55:51.999Z,49.69
2019-04-21T19:58:27.560Z,49.55
2019-04-21T20:00:52.256Z,50.37
2019-04-21T20:03:18.771Z,51.38
2019-04-21T20:05:54.806Z,50.25
2019-04-21T20:08:31.957Z,50.65
2019-04-21T20:11:03.989Z,49.70
2019-04-21T20:13:45.370Z,48.69
2019-04-21T20:16:03.756Z,50.17
2019-04-21T20:18:23.174Z,50.17
2019-04-21T20:20:43.859Z,51.75
2019-04-21T20:23:18.764Z,51.27
2019-04-21T20:25:48.465Z,51.95
2019-04-21T20:28:21.389Z,51.56
2019-04-21T20:30:59.604Z,50.57
2019-04-21T20:33:48.501Z,50.53
2019-04-21T20:36:03.327Z,51.61
2019-04-21T20:38:19.074Z,51.46
2019-04-21T20:40:45.799Z,51.26
2019-04-21T20:43:28.502Z,53.74
2019-04-21T21:00:31.846Z,55.21
2019-04-21T21:03:01.169Z,55.47
2019-04-21T21:05:23.397Z,55.39
2019-04-21T21:07:57.006Z,55.59
2019-04-21T21:10:27.977Z,54.90
2019-04-21T21:13:07.580Z,55.16
2019-04-21T21:15:24.590Z,54.25
2019-04-21T21:18:01.409Z,54.76
2019-04-21T21:20:27.514Z,55.64
2019-04-21T21:22:50.656Z,54.64
2019-04-21T21:25:30.518Z,55.36
2019-04-21T21:27:45.165Z,55.44
2019-04-21T21:30:18.637Z,55.62
2019-04-21T21:32:49.378Z,55.60
2019-04-21T21:35:18.992Z,55.88
2019-04-21T21:37:54.884Z,55.99
2019-04-21T21:40:21.905Z,56.05
2019-04-21T21:42:35.347Z,55.56
2019-04-21T21:45:04.895Z,55.56
2019-04-21T21:47:47.556Z,56.10
2019-04-21T21:50:10.021Z,56.23
2019-04-21T21:52:39.799Z,56.19
2019-04-21T21:54:58.208Z,56.40
2019-04-21T21:57:26.164Z,57.05
2019-04-21T21:59:58.859Z,56.40
2019-04-21T22:02:33.086Z,56.56
2019-04-21T22:05:01.163Z,56.74
2019-04-21T22:07:26.913Z,56.75
2019-04-21T22:09:52.447Z,56.50
2019-04-21T22:12:20.315Z,56.71
2019-04-21T22:14:50.453Z,56.79
2019-04-21T22:17:32.769Z,56.77
2019-04-21T22:20:12.237Z,56.71
2019-04-21T22:22:32.539Z,57.11
2019-04-21T22:24:55.685Z,56.61
2019-04-21T22:27:14.931Z,57.67
2019-04-21T22:29:48.222Z,57.30
2019-04-21T22:32:17.466Z,57.92
2019-04-21T22:34:48.698Z,58.46
2019-04-21T22:37:25.946Z,59.06
2019-04-21T22:39:54.351Z,59.65
2019-04-21T22:42:17.938Z,59.53
2019-04-21T22:44:40.343Z,59.42
2019-04-21T22:47:15.674Z,59.76
2019-04-21T22:49:38.774Z,58.37
2019-04-21T22:52:11.075Z,58.61
2019-04-21T22:54:40.919Z,58.35
2019-04-21T22:57:12.896Z,58.35
2019-04-21T22:59:35.637Z,58.62
2019-04-21T23:02:06.370Z,58.58
2019-04-21T23:04:43.130Z,59.66
2019-04-21T23:07:11.268Z,60.33
2019-04-21T23:09:32.925Z,60.51
2019-04-21T23:12:01.903Z,60.56
2019-04-21T23:14:33.943Z,60.17
2019-04-21T23:17:22.944Z,60.00
2019-04-21T23:19:42.217Z,60.33
2019-04-21T23:22:16.137Z,60.17
2019-04-21T23:24:59.532Z,60.78
2019-04-21T23:27:11.879Z,61.81
2019-04-21T23:29:52.807Z,62.23
2019-04-21T23:32:14.931Z,62.92
2019-04-21T23:34:30.787Z,63.93
2019-04-21T23:37:04.392Z,63.02
2019-04-21T23:39:29.005Z,62.27
2019-04-21T23:41:56.954Z,62.68
2019-04-21T23:44:24.119Z,63.23
2019-04-21T23:46:57.583Z,63.82
2019-04-21T23:49:34.558Z,64.23
2019-04-21T23:52:00.347Z,64.50
2019-04-21T23:54:20.304Z,64.39
2019-04-21T23:56:49.255Z,64.24
2019-04-21T23:59:18.045Z,63.88
